Karaj, Iran
Current Conditions -  °F | °C
As of 11:00 AM on Friday 31 Oct 2014 (Local Time) from OIIP Reporting Station
Scattered Clouds Scattered Clouds  
Wind Chill: 55°   Ceiling: Unl
Heat Index: 55°   Visibility: 6mi
Dew Point: 25°   Wind: 14mph
Humidity: 31%   Direction: 160°SSE
Pressure: 30.12"   Gusts: NA
Location:  35.8°N, 50.97°E
Report Text: OIIP 310700Z 16012KT 9999 FEW040 SCT200 13/M04 Q1020
Loading
Personal Weather Stations






























Interactive Weather Map
Tropical Storm Tracking
New forecast layout! Learn more

10-Day Weather Forecast

Advertisements
Track Severe Weather on mobile